^^

Nearby METAR Reports

METAR (Meteorological Aerodrome Report) are Airport generated local weather condition reports for use, predominantly by pilots, these reports are also used as part of compliment of data sets required for Chatteris Weathers prediction software - WxSim.

EGUN - Mildenhall Raf, United Kingdom
Distance from station: ESE 19mi, 31km
Updated: 29/01/2020 20:56
Clear
Clear
 Wind from SW
Wind: SW 18 mph , 30 km/h, Gust: 26 mph , 43 km/h
Temperature: 7°C
Wind Chill: 3°C
Dew Point: 3°C
Humidity: 76%
Barometer: 1008.1 hPa
Clouds: Clear
Visibility: 6 miles , 10 km
2020/01/29 20:56 EGUN 292056Z 23016G23KT 9999 CLR 07/03 A2977 RMK SLP079 WND DATA ESTMD ALTSG ESTMD
EGSC - Cambridge, United Kingdom
Distance from station: SSE 20mi, 32km
Updated: 29/01/2020 17:50
NOT Current
Clear
Clear
 Wind from SW
Wind: SW 14 mph , 22 km/h
Temperature: 8°C
Wind Chill: 4°C
Dew Point: 3°C
Humidity: 71%
Barometer: 1009 hPa
Summary: Clear
Visibility: greater than 7 miles , 10 km
2020/01/29 17:50 EGSC 291750Z 22012KT CAVOK 08/03 Q1009
 
EGUL - Lakenheath Raf, United Kingdom
Distance from station: E 22mi, 36km
Updated: 29/01/2020 20:56
Few Clouds
Few Clouds
 Wind from SW
Wind: SW 18 mph , 30 km/h
Temperature: 7°C
Wind Chill: 3°C
Dew Point: 3°C
Humidity: 76%
Barometer: 1007.5 hPa
Clouds: Few Clouds
Visibility: 6 miles , 10 km
Cloud details: Few Clouds 1676 m
2020/01/29 20:56 EGUL 292056Z 22016KT 9999 FEW055 07/03 A2975 RMK SLPNO
EGXT - Wittering Raf, United Kingdom
Distance from station: WNW 24mi, 38km
Updated: 29/01/2020 20:50
Partly cloudy
Partly cloudy
 Wind from SW
Wind: SW 16 mph , 26 km/h
Temperature: 7°C
Wind Chill: 3°C
Dew Point: 5°C
Humidity: 87%
Barometer: 1006 hPa
Clouds: Partly cloudy
Visibility: 6 miles , 10 km
Cloud details: Partly cloudy 549 m
2020/01/29 20:50 EGXT 292050Z AUTO 23014KT 9999 SCT018/// 07/05 Q1006
 
EGYH - Holbeach (aut), United Kingdom
Distance from station: N 27mi, 44km
Updated: 29/01/2020 14:50
NOT Current
Mostly cloudy
Mostly cloudy
 Wind from WSW
Wind: WSW 16 mph , 26 km/h
Temperature: 7°C
Wind Chill: 3°C
Dew Point: 4°C
Humidity: 81%
Barometer: 1007 hPa
Clouds: Mostly cloudy
Visibility: 6 miles , 10 km
Cloud details: Few Clouds 762 m
Mostly cloudy 4572 m
2020/01/29 14:50 EGYH 291450Z 24014KT 9999 FEW025 BKN150 07/04 Q1007 RMK BLU
EGSS - Stansted Airport, United Kingdom
Distance from station: SE 11mi, 18km
Updated: 29/01/2020 21:20
Overcast
Overcast
 Wind from SW
Wind: SW 14 mph , 22 km/h
Temperature: 7°C
Wind Chill: 4°C
Dew Point: 5°C
Humidity: 87%
Barometer: 1010 hPa
Clouds: Overcast
Visibility: 6 miles , 10 km
Cloud details: Overcast 1280 m
2020/01/29 21:20 EGSS 292120Z AUTO 22012KT 9999 OVC042 07/05 Q1010
 
EGGW - Luton Airport, United Kingdom
Distance from station: WSW 19mi, 31km
Updated: 29/01/2020 21:20
Overcast
Overcast
 Wind from SW
Wind: SW 15 mph , 24 km/h
Temperature: 6°C
Wind Chill: 2°C
Dew Point: 4°C
Humidity: 87%
Barometer: 1009 hPa
Clouds: Overcast
Visibility: 6 miles , 10 km
Cloud details: Overcast 1250 m
2020/01/29 21:20 EGGW 292120Z AUTO 22013KT 9999 OVC041 06/04 Q1009
EGLL - London/Heathrow, United Kingdom
Distance from station: SSW 41mi, 66km
Updated: 29/01/2020 21:20
Clear
Clear
 Wind from SSW
Wind: SSW 12 mph , 19 km/h
Temperature: 7°C
Wind Chill: 4°C
Dew Point: 5°C
Humidity: 87%
Barometer: 1011 hPa
Clouds: Clear
Visibility: 6 miles , 10 km
2020/01/29 21:20 EGLL 292120Z AUTO 21010KT 9999 NCD 07/05 Q1011
 
EGKK - London/Gatwick A, United Kingdom
Distance from station: S 60mi, 97km
Updated: 29/01/2020 21:20
Few Clouds
Few Clouds
 Wind from SW
Wind: SW 9 mph , 15 km/h
Temperature: 7°C
Wind Chill: 4°C
Dew Point: 6°C
Humidity: 93%
Barometer: 1012 hPa
Clouds: Few Clouds
Visibility: 6 miles , 10 km
Cloud details: Few Clouds 1189 m
2020/01/29 21:20 EGKK 292120Z 22008KT 9999 FEW039 07/06 Q1012
EGUY - Wyton Raf, United Kingdom
Distance from station: SW 11mi, 18km
Updated: 04/10/2015 09:50
NOT Current
Haze, Clear
Haze, Clear
 Wind from SSE
Wind: SSE 2 mph , 4 km/h
Temperature: 11°C
Dew Point: 7°C
Humidity: 77%
Barometer: 1014 hPa
Summary: Haze
Clouds: Clear
Visibility: 4 miles , 6 km
2015/10/04 08:50 EGUY 040850Z 15002KT 6000 HZ SKC 11/07 Q1014 WHT

Met Office METAR data link, decoding METAR data code.